Dl Adonis — 3EIT4 — position and weather

sailwx.info

Track history (hours):
 
Tides and Currents Weather Stations Pressure Air Temp Water Temp Dewpoint Dewpoint Depression Visibility Wind Speed Wind Dir Waves Ship Positions

Dl Adonis

Last reported at 2018-Feb-21 07:00 UTC. Time now 2018-Feb-22 15:10 UTC.
Position N 27°40' W 015°12'.

Length 222 m; draft 14 m.

Type: Cargo ship. MMSI: 352867000.

Date/timePositionNaut miles runAvg speedWind from/ knotsBaromVisibWave heightAir tempDewpointWater temp
2018-Feb-21 07:00N 27°40' W 015°12'712.4
2018-Feb-21 06:28N 27°46' W 015°09'612.4
2018-Feb-21 06:00N 27°51' W 015°07'612.3
2018-Feb-21 05:30N 27°57' W 015°04'612.3
2018-Feb-21 05:00N 28°03' W 015°02'612.4
2018-Feb-21 04:30N 28°09' W 014°60'612.2
2018-Feb-21 04:00N 28°15' W 014°57'612.3
2018-Feb-21 03:30N 28°20' W 014°55'612.5
2018-Feb-21 03:00N 28°26' W 014°53'612.3
2018-Feb-21 02:30N 28°32' W 014°51'612.0
2018-Feb-21 01:59N 28°38' W 014°50'612.0
2018-Feb-21 01:30N 28°44' W 014°48'  
2018-Feb-15 16:32N 52°03' W 005°50'1 9.9
2018-Feb-15 16:28N 52°03' W 005°49'610.4
2018-Feb-15 15:51N 52°10' W 005°47'411.4
2018-Feb-15 15:30N 52°13' W 005°45'612.2
2018-Feb-15 15:00N 52°19' W 005°43'612.8
2018-Feb-15 14:30N 52°26' W 005°40'10510.7
2018-Feb-15 04:39N 54°09' W 005°09'211.2
2018-Feb-15 04:30N 54°11' W 005°09'511.0
2018-Feb-15 04:00N 54°16' W 005°09'510.9
2018-Feb-15 03:30N 54°22' W 005°09'510.5
2018-Feb-15 02:59N 54°27' W 005°09'510.4
2018-Feb-15 02:30N 54°32' W 005°13'510.0
2018-Feb-15 02:00N 54°36' W 005°16'5 9.6
2018-Feb-15 01:30N 54°41' W 005°20'5 9.6
2018-Feb-15 01:00N 54°45' W 005°23'510.0
2018-Feb-15 00:30N 54°50' W 005°26'510.2
2018-Feb-15 00:00N 54°54' W 005°30'610.6
2018-Feb-14 23:25N 55°00' W 005°35'2711.8
2018-Feb-14 21:06N 55°21' W 006°06'113.2
2018-Feb-14 21:00N 55°21' W 006°08'612.5
2018-Feb-14 20:30N 55°23' W 006°19'713.4
2018-Feb-14 20:00N 55°27' W 006°28'713.2
2018-Feb-14 19:30N 55°31' W 006°38'612.5
2018-Feb-14 19:00N 55°34' W 006°47'611.9
2018-Feb-14 18:30N 55°38' W 006°56'510.9
2018-Feb-14 18:00N 55°41' W 007°04'4 7.8
2018-Feb-14 17:30N 55°45' W 007°04'4 8.0
2018-Feb-14 16:59N 55°49' W 007°04'  
Track history (hours):
 
Tides and Currents Weather Stations Pressure Air Temp Water Temp Dewpoint Dewpoint Depression Visibility Wind Speed Wind Dir Waves Ship Positions

Dl Adonis

Last reported at 2018-Feb-21 07:00 UTC. Time now 2018-Feb-22 15:10 UTC.
Position N 27°40' W 015°12'.

Length 222 m; draft 14 m.

Type: Cargo ship. MMSI: 352867000.

Date/timePositionNaut miles runAvg speedWind from/ knotsBaromVisibWave heightAir tempDewpointWater temp
2018-Feb-21 07:00N 27°40' W 015°12'712.4
2018-Feb-21 06:28N 27°46' W 015°09'612.4
2018-Feb-21 06:00N 27°51' W 015°07'612.3
2018-Feb-21 05:30N 27°57' W 015°04'612.3
2018-Feb-21 05:00N 28°03' W 015°02'612.4
2018-Feb-21 04:30N 28°09' W 014°60'612.2
2018-Feb-21 04:00N 28°15' W 014°57'612.3
2018-Feb-21 03:30N 28°20' W 014°55'612.5
2018-Feb-21 03:00N 28°26' W 014°53'612.3
2018-Feb-21 02:30N 28°32' W 014°51'612.0
2018-Feb-21 01:59N 28°38' W 014°50'612.0
2018-Feb-21 01:30N 28°44' W 014°48'  
2018-Feb-15 16:32N 52°03' W 005°50'1 9.9
2018-Feb-15 16:28N 52°03' W 005°49'610.4
2018-Feb-15 15:51N 52°10' W 005°47'411.4
2018-Feb-15 15:30N 52°13' W 005°45'612.2
2018-Feb-15 15:00N 52°19' W 005°43'612.8
2018-Feb-15 14:30N 52°26' W 005°40'10510.7
2018-Feb-15 04:39N 54°09' W 005°09'211.2
2018-Feb-15 04:30N 54°11' W 005°09'511.0
2018-Feb-15 04:00N 54°16' W 005°09'510.9
2018-Feb-15 03:30N 54°22' W 005°09'510.5
2018-Feb-15 02:59N 54°27' W 005°09'510.4
2018-Feb-15 02:30N 54°32' W 005°13'510.0
2018-Feb-15 02:00N 54°36' W 005°16'5 9.6
2018-Feb-15 01:30N 54°41' W 005°20'5 9.6
2018-Feb-15 01:00N 54°45' W 005°23'510.0
2018-Feb-15 00:30N 54°50' W 005°26'510.2
2018-Feb-15 00:00N 54°54' W 005°30'610.6
2018-Feb-14 23:25N 55°00' W 005°35'2711.8
2018-Feb-14 21:06N 55°21' W 006°06'113.2
2018-Feb-14 21:00N 55°21' W 006°08'612.5
2018-Feb-14 20:30N 55°23' W 006°19'713.4
2018-Feb-14 20:00N 55°27' W 006°28'713.2
2018-Feb-14 19:30N 55°31' W 006°38'612.5
2018-Feb-14 19:00N 55°34' W 006°47'611.9
2018-Feb-14 18:30N 55°38' W 006°56'510.9
2018-Feb-14 18:00N 55°41' W 007°04'4 7.8
2018-Feb-14 17:30N 55°45' W 007°04'4 8.0
2018-Feb-14 16:59N 55°49' W 007°04'  

Dump ship's entire track history